createdAt,value
2019-03-04T00:01:15.807Z,9.10
2019-03-04T00:03:45.462Z,9.00
2019-03-04T00:06:15.247Z,9.00
2019-03-04T00:08:44.978Z,9.10
2019-03-04T00:11:15.686Z,9.20
2019-03-04T00:13:45.379Z,9.20
2019-03-04T00:16:15.107Z,9.30
2019-03-04T00:18:48.769Z,9.30
2019-03-04T00:21:18.523Z,9.40
2019-03-04T00:23:48.540Z,9.50
2019-03-04T00:26:18.551Z,9.50
2019-03-04T00:28:48.638Z,9.60
2019-03-04T00:31:18.685Z,9.70
2019-03-04T00:33:48.710Z,9.80
2019-03-04T00:36:18.636Z,9.80
2019-03-04T00:38:48.517Z,9.90
2019-03-04T00:41:18.533Z,10.00
2019-03-04T00:43:48.568Z,9.90
2019-03-04T00:46:18.461Z,10.00
2019-03-04T00:48:48.309Z,10.00
2019-03-04T00:51:18.170Z,9.90
2019-03-04T00:53:48.311Z,9.80
2019-03-04T00:56:18.350Z,9.80
2019-03-04T00:58:48.430Z,9.70
2019-03-04T01:01:18.703Z,9.60
2019-03-04T01:03:48.567Z,9.60
2019-03-04T01:06:18.630Z,9.50
2019-03-04T01:08:51.579Z,9.50
2019-03-04T01:11:21.392Z,9.50
2019-03-04T01:13:51.447Z,9.50
2019-03-04T01:16:21.163Z,9.50
2019-03-04T01:18:50.838Z,9.40
2019-03-04T01:21:20.600Z,9.40
2019-03-04T01:23:51.521Z,9.30
2019-03-04T01:26:21.384Z,9.30
2019-03-04T01:28:51.050Z,9.50
2019-03-04T01:31:20.965Z,9.40
2019-03-04T01:33:50.702Z,9.50
2019-03-04T01:36:22.198Z,9.50
2019-03-04T01:38:52.145Z,9.40
2019-03-04T01:41:24.947Z,9.40
2019-03-04T01:43:54.810Z,9.30
2019-03-04T01:46:24.520Z,9.30
2019-03-04T01:48:56.050Z,9.10
2019-03-04T01:51:25.929Z,9.10
2019-03-04T01:53:55.638Z,9.00
2019-03-04T01:56:25.567Z,9.10
2019-03-04T01:58:55.439Z,9.10
2019-03-04T02:01:25.354Z,9.20
2019-03-04T02:03:55.240Z,9.10
2019-03-04T02:06:24.974Z,9.10
2019-03-04T02:08:56.793Z,9.10
2019-03-04T02:11:26.373Z,9.00
2019-03-04T02:13:56.348Z,9.10
2019-03-04T02:16:26.498Z,9.10
2019-03-04T02:18:56.382Z,9.00
2019-03-04T02:21:26.278Z,9.00
2019-03-04T02:23:56.288Z,9.00
2019-03-04T02:26:28.386Z,9.10
2019-03-04T02:28:58.447Z,9.00
2019-03-04T02:31:28.167Z,9.00
2019-03-04T02:33:57.852Z,9.00
2019-03-04T02:36:27.678Z,9.00
2019-03-04T02:38:57.349Z,9.00
2019-03-04T02:41:27.037Z,8.90
2019-03-04T02:43:56.747Z,8.90
2019-03-04T02:46:26.715Z,8.90
2019-03-04T02:48:56.452Z,8.90
2019-03-04T02:51:26.317Z,8.90
2019-03-04T02:53:56.192Z,8.80
2019-03-04T02:56:25.986Z,8.90
2019-03-04T02:58:55.865Z,9.00
2019-03-04T03:01:25.672Z,9.00
2019-03-04T03:03:55.616Z,9.00
2019-03-04T03:06:25.604Z,9.10
2019-03-04T03:08:55.552Z,9.00
2019-03-04T03:11:25.390Z,9.00
2019-03-04T03:13:55.478Z,8.90
2019-03-04T03:16:25.385Z,8.90
2019-03-04T03:18:55.308Z,8.90
2019-03-04T03:21:25.291Z,8.80
2019-03-04T03:23:55.436Z,8.80
2019-03-04T03:26:25.127Z,8.80
2019-03-04T03:28:54.880Z,8.80
2019-03-04T03:31:24.731Z,8.70
2019-03-04T03:33:54.673Z,8.70
2019-03-04T03:36:24.889Z,8.70
2019-03-04T03:38:54.913Z,8.80
2019-03-04T03:41:24.792Z,8.70
2019-03-04T03:43:54.882Z,8.70
2019-03-04T03:46:24.554Z,8.70
2019-03-04T03:48:54.277Z,8.60
2019-03-04T03:51:23.970Z,8.60
2019-03-04T03:53:53.706Z,8.60
2019-03-04T03:56:23.432Z,8.50
2019-03-04T03:58:53.316Z,8.40
2019-03-04T04:01:23.043Z,8.40
2019-03-04T04:03:53.277Z,8.40
2019-03-04T04:06:23.129Z,8.40
2019-03-04T04:08:53.274Z,8.40
2019-03-04T04:11:23.377Z,8.40
2019-03-04T04:13:53.093Z,8.40
2019-03-04T04:16:22.820Z,8.30
2019-03-04T04:18:52.530Z,8.30
2019-03-04T04:21:22.340Z,8.30
2019-03-04T04:23:52.307Z,8.30
2019-03-04T04:26:22.293Z,8.20
2019-03-04T04:29:03.885Z,8.20
2019-03-04T04:31:33.573Z,8.20
2019-03-04T04:34:03.534Z,8.10
2019-03-04T04:36:33.208Z,8.10
2019-03-04T04:39:04.635Z,8.00
2019-03-04T04:41:36.894Z,8.00
2019-03-04T04:44:08.039Z,7.90
2019-03-04T04:46:55.065Z,7.90
2019-03-04T04:49:26.388Z,7.90
2019-03-04T04:51:56.267Z,7.90
2019-03-04T04:54:26.338Z,7.90
2019-03-04T04:56:56.358Z,7.90
2019-03-04T04:59:26.094Z,7.80
2019-03-04T05:01:56.109Z,7.90
2019-03-04T05:04:25.833Z,7.90
2019-03-04T05:06:55.504Z,7.90
2019-03-04T05:09:25.263Z,7.80
2019-03-04T05:11:55.670Z,7.80
2019-03-04T05:14:25.371Z,7.80
2019-03-04T05:16:55.273Z,7.80
2019-03-04T05:19:25.196Z,7.80
2019-03-04T05:21:56.921Z,7.80
2019-03-04T05:24:26.784Z,7.80
2019-03-04T05:26:56.482Z,7.70
2019-03-04T05:29:26.581Z,7.60
2019-03-04T05:31:56.463Z,7.50
2019-03-04T05:34:26.515Z,7.50
2019-03-04T05:36:56.800Z,7.50
2019-03-04T05:39:26.839Z,7.50
2019-03-04T05:41:56.738Z,7.60
2019-03-04T05:44:26.459Z,7.60
2019-03-04T05:46:56.373Z,7.70
2019-03-04T05:49:26.191Z,7.80
2019-03-04T05:51:56.146Z,7.80
2019-03-04T05:54:25.982Z,7.90
2019-03-04T05:56:55.683Z,7.90
2019-03-04T05:59:25.626Z,7.80
2019-03-04T06:02:07.507Z,7.90
2019-03-04T06:04:37.726Z,7.90
2019-03-04T06:07:29.534Z,8.00
2019-03-04T06:09:59.483Z,8.10
2019-03-04T06:12:29.390Z,8.10
2019-03-04T06:14:59.179Z,8.10
2019-03-04T06:17:28.847Z,8.10
2019-03-04T06:19:58.595Z,8.20
2019-03-04T06:22:28.363Z,8.40
2019-03-04T06:24:59.132Z,8.50
2019-03-04T06:27:28.876Z,8.60
2019-03-04T06:29:58.589Z,8.80
2019-03-04T06:32:28.251Z,9.70
2019-03-04T06:34:59.009Z,11.60
2019-03-04T06:37:29.006Z,13.40
2019-03-04T06:39:58.746Z,14.40
2019-03-04T06:42:28.442Z,15.10
2019-03-04T06:44:58.270Z,16.20
2019-03-04T06:47:28.161Z,16.70
2019-03-04T06:49:58.180Z,17.70
2019-03-04T06:52:27.999Z,17.60
2019-03-04T06:55:20.638Z,18.10
2019-03-04T06:57:52.132Z,17.90
2019-03-04T07:01:01.738Z,17.40
2019-03-04T07:03:58.633Z,17.10
2019-03-04T07:06:28.581Z,16.00
2019-03-04T07:09:26.531Z,15.90
2019-03-04T07:11:56.570Z,16.80
2019-03-04T07:14:26.547Z,18.40
2019-03-04T07:16:56.509Z,18.70
2019-03-04T07:19:31.014Z,17.70
2019-03-04T07:22:00.914Z,15.80
2019-03-04T07:24:30.647Z,16.90
2019-03-04T07:27:00.446Z,17.40
2019-03-04T07:29:30.327Z,17.60
2019-03-04T07:32:00.379Z,16.90
2019-03-04T07:34:30.069Z,15.80
2019-03-04T07:37:02.392Z,15.00
2019-03-04T07:39:32.060Z,14.20
2019-03-04T07:42:01.812Z,13.70
2019-03-04T07:44:31.512Z,13.60
2019-03-04T07:47:01.232Z,13.30
2019-03-04T07:49:31.183Z,13.10
2019-03-04T07:52:01.227Z,13.10
2019-03-04T07:54:31.208Z,13.20
2019-03-04T07:57:01.603Z,13.40
2019-03-04T07:59:31.567Z,13.80
2019-03-04T08:02:01.615Z,14.00
2019-03-04T08:04:31.465Z,14.30
2019-03-04T08:07:37.750Z,14.60
2019-03-04T08:10:32.746Z,14.80
2019-03-04T08:13:27.552Z,15.00
2019-03-04T08:15:58.669Z,14.90
2019-03-04T08:18:28.697Z,14.90
2019-03-04T08:20:58.626Z,14.80
2019-03-04T08:23:28.619Z,14.40
2019-03-04T08:25:58.837Z,14.40
2019-03-04T08:28:29.095Z,14.60
2019-03-04T08:30:59.067Z,14.60
2019-03-04T08:33:28.774Z,14.40
2019-03-04T08:35:58.755Z,14.30
2019-03-04T08:38:28.509Z,14.40
2019-03-04T08:40:58.380Z,14.80
2019-03-04T08:43:28.333Z,15.90
2019-03-04T08:45:58.207Z,19.10
2019-03-04T08:48:28.061Z,21.20
2019-03-04T08:50:58.116Z,23.60
2019-03-04T08:53:27.933Z,25.50
2019-03-04T08:55:57.639Z,25.50
2019-03-04T08:58:27.404Z,27.00
2019-03-04T09:00:57.072Z,27.20
2019-03-04T09:03:26.766Z,26.30
2019-03-04T09:05:57.654Z,24.10
2019-03-04T09:08:27.513Z,22.20
2019-03-04T09:10:57.225Z,20.70
2019-03-04T09:13:26.995Z,21.20
2019-03-04T09:15:56.713Z,23.60
2019-03-04T09:18:26.427Z,23.80
2019-03-04T09:20:56.183Z,24.00
2019-03-04T09:23:27.734Z,24.70
2019-03-04T09:26:09.279Z,24.00
2019-03-04T09:28:40.240Z,23.10
2019-03-04T09:31:10.057Z,21.50
2019-03-04T09:33:39.817Z,20.50
2019-03-04T09:36:09.541Z,19.80
2019-03-04T09:38:39.377Z,19.10
2019-03-04T09:41:09.086Z,18.40
2019-03-04T09:43:39.133Z,18.30
2019-03-04T09:46:08.983Z,18.10
2019-03-04T09:48:40.711Z,18.20
2019-03-04T09:51:10.835Z,18.40
2019-03-04T09:53:42.902Z,18.30
2019-03-04T09:56:12.122Z,18.20
2019-03-04T09:58:42.189Z,18.10
2019-03-04T10:01:28.235Z,17.70
2019-03-04T10:04:19.390Z,17.80
2019-03-04T10:07:14.046Z,17.40
2019-03-04T10:10:22.525Z,17.40
2019-03-04T10:13:03.631Z,17.60
2019-03-04T10:15:43.845Z,17.60
2019-03-04T10:18:55.492Z,17.70
2019-03-04T10:22:06.062Z,18.00
2019-03-04T10:25:29.623Z,17.70
2019-03-04T10:28:35.568Z,17.90
2019-03-04T10:31:34.191Z,17.90
2019-03-04T10:34:24.701Z,17.90
2019-03-04T10:37:23.593Z,18.10
2019-03-04T10:40:47.156Z,18.10
2019-03-04T10:43:40.207Z,18.10
2019-03-04T10:46:59.692Z,18.00
2019-03-04T10:49:31.002Z,17.90
2019-03-04T10:52:00.687Z,17.80
2019-03-04T10:54:30.402Z,17.80
2019-03-04T10:57:00.351Z,17.60
2019-03-04T10:59:30.511Z,17.50
2019-03-04T11:02:00.189Z,17.50
2019-03-04T11:04:33.286Z,17.30
2019-03-04T11:07:03.171Z,17.10
2019-03-04T11:09:33.001Z,17.10
2019-03-04T11:12:04.539Z,17.20
2019-03-04T11:14:34.726Z,17.20
2019-03-04T11:17:04.870Z,17.30
2019-03-04T11:19:34.610Z,17.30
2019-03-04T11:22:04.419Z,17.30
2019-03-04T11:24:34.162Z,17.30
2019-03-04T11:27:03.954Z,17.40
2019-03-04T11:29:33.794Z,17.30
2019-03-04T11:32:03.520Z,17.40
2019-03-04T11:34:33.267Z,17.30
2019-03-04T11:37:03.123Z,17.30
2019-03-04T11:39:50.625Z,17.40
2019-03-04T11:42:20.321Z,17.40
2019-03-04T11:44:50.306Z,17.20
2019-03-04T11:47:24.954Z,17.10
2019-03-04T11:49:54.943Z,17.00
2019-03-04T11:52:26.431Z,17.00
2019-03-04T11:54:56.302Z,16.80
2019-03-04T11:57:26.284Z,16.60
2019-03-04T11:59:56.528Z,16.20
2019-03-04T12:02:38.524Z,16.00
2019-03-04T12:05:03.284Z,15.80
2019-03-04T12:07:33.227Z,15.70
2019-03-04T12:10:03.138Z,15.70
2019-03-04T12:12:32.956Z,15.60
2019-03-04T12:15:02.974Z,15.50
2019-03-04T12:17:32.742Z,15.50
2019-03-04T12:20:02.687Z,15.40
2019-03-04T12:22:32.587Z,15.30
2019-03-04T12:25:02.509Z,15.30
2019-03-04T12:27:32.498Z,15.40
2019-03-04T12:30:02.237Z,15.20
2019-03-04T12:32:35.730Z,15.10
2019-03-04T12:35:08.993Z,15.00
2019-03-04T12:37:38.786Z,15.00
2019-03-04T12:40:10.062Z,15.00
2019-03-04T12:53:48.444Z,14.80
2019-03-04T12:56:18.358Z,14.90
2019-03-04T12:58:48.302Z,14.90
2019-03-04T13:01:18.181Z,15.00
2019-03-04T13:03:48.571Z,15.00
2019-03-04T13:06:18.641Z,15.10
2019-03-04T13:08:50.074Z,15.10
2019-03-04T13:11:20.187Z,15.20
2019-03-04T13:13:50.214Z,15.40
2019-03-04T13:16:19.926Z,15.50
2019-03-04T13:18:50.244Z,15.60
2019-03-04T13:21:20.191Z,15.70
2019-03-04T13:23:49.928Z,15.60
2019-03-04T13:26:19.989Z,15.70
2019-03-04T13:28:49.758Z,15.70
2019-03-04T13:31:19.517Z,15.80
2019-03-04T13:33:49.242Z,15.80
2019-03-04T13:36:19.112Z,15.90
2019-03-04T13:38:49.054Z,16.00
2019-03-04T13:41:19.143Z,16.00
2019-03-04T13:43:49.149Z,16.00
2019-03-04T13:46:19.169Z,16.00
2019-03-04T13:48:49.013Z,15.90
2019-03-04T13:51:19.195Z,15.80
2019-03-04T13:53:48.946Z,15.80
2019-03-04T13:56:18.764Z,15.80
2019-03-04T13:58:48.451Z,15.70
2019-03-04T14:01:18.157Z,15.70
2019-03-04T14:03:47.939Z,15.70
2019-03-04T14:06:18.102Z,15.70
2019-03-04T14:08:49.511Z,15.70
2019-03-04T14:11:19.974Z,15.70
2019-03-04T14:13:49.811Z,15.70
2019-03-04T14:16:20.157Z,15.80
2019-03-04T14:18:49.898Z,15.80
2019-03-04T14:21:19.825Z,15.90
2019-03-04T14:26:46.832Z,16.10
2019-03-04T14:29:16.970Z,16.20
2019-03-04T14:31:47.315Z,16.30
2019-03-04T14:34:17.275Z,16.30
2019-03-04T14:36:47.454Z,16.40
2019-03-04T14:39:20.604Z,16.40
2019-03-04T14:41:50.547Z,16.60
2019-03-04T14:44:20.424Z,16.60
2019-03-04T14:46:50.637Z,16.60
2019-03-04T14:49:20.422Z,16.60
2019-03-04T14:51:50.346Z,16.60
2019-03-04T14:54:20.306Z,16.60
2019-03-04T14:56:50.343Z,16.70
2019-03-04T14:59:20.087Z,16.50
2019-03-04T15:01:52.418Z,16.50
2019-03-04T15:04:22.131Z,16.40
2019-03-04T15:06:51.919Z,16.30
2019-03-04T15:09:21.602Z,16.20
2019-03-04T15:11:51.913Z,16.10
2019-03-04T15:14:21.629Z,16.00
2019-03-04T15:17:02.794Z,15.90
2019-03-04T15:19:24.503Z,15.90
2019-03-04T15:21:54.283Z,15.70
2019-03-04T15:24:24.347Z,15.60
2019-03-04T15:26:54.317Z,15.50
2019-03-04T15:29:24.366Z,15.40
2019-03-04T15:31:54.128Z,15.40
2019-03-04T15:34:24.115Z,15.30
2019-03-04T15:36:54.114Z,15.20
2019-03-04T15:39:27.475Z,15.30
2019-03-04T15:41:57.451Z,15.30
2019-03-04T15:44:27.519Z,15.30
2019-03-04T15:46:57.353Z,15.20
2019-03-04T15:49:27.566Z,15.20
2019-03-04T15:51:57.517Z,15.10
2019-03-04T15:54:27.379Z,15.00
2019-03-04T15:57:01.724Z,15.00
2019-03-04T15:59:31.933Z,14.90
2019-03-04T16:02:08.964Z,14.80
2019-03-04T16:04:39.007Z,14.80
2019-03-04T16:07:09.860Z,14.70
2019-03-04T16:09:42.410Z,14.70
2019-03-04T16:12:14.505Z,14.60
2019-03-04T16:14:44.306Z,14.60
2019-03-04T16:17:14.241Z,14.50
2019-03-04T16:19:43.955Z,14.40
2019-03-04T16:22:13.783Z,14.30
2019-03-04T16:24:43.785Z,14.20
2019-03-04T16:27:14.629Z,14.20
2019-03-04T16:29:44.306Z,14.10
2019-03-04T16:32:14.208Z,14.10
2019-03-04T16:34:43.933Z,14.10
2019-03-04T16:37:13.659Z,14.10
2019-03-04T16:39:43.372Z,14.00
2019-03-04T16:42:13.646Z,14.00
2019-03-04T16:44:43.652Z,13.90
2019-03-04T16:47:13.909Z,13.90
2019-03-04T16:49:45.573Z,13.80
2019-03-04T16:52:15.366Z,13.70
2019-03-04T16:54:45.459Z,13.60
2019-03-04T16:57:15.462Z,13.60
2019-03-04T16:59:45.491Z,13.50
2019-03-04T17:02:15.763Z,13.50
2019-03-04T17:04:47.019Z,13.50
2019-03-04T17:07:17.071Z,13.50
2019-03-04T17:09:46.989Z,13.40
2019-03-04T17:12:17.107Z,13.40
2019-03-04T17:14:47.047Z,13.40
2019-03-04T17:17:17.148Z,13.40
2019-03-04T17:19:47.413Z,13.30
2019-03-04T17:22:17.369Z,13.30
2019-03-04T17:24:47.351Z,13.30
2019-03-04T17:27:17.447Z,13.20
2019-03-04T17:29:47.591Z,13.20
2019-03-04T17:32:17.734Z,13.10
2019-03-04T17:34:47.767Z,13.00
2019-03-04T17:37:17.467Z,13.10
2019-03-04T17:39:47.199Z,13.00
2019-03-04T17:42:17.028Z,12.90
2019-03-04T17:44:46.731Z,12.90
2019-03-04T17:47:16.535Z,12.90
2019-03-04T17:49:46.230Z,12.90
2019-03-04T17:52:16.239Z,12.80
2019-03-04T17:54:46.086Z,12.80
2019-03-04T17:57:17.404Z,12.80
2019-03-04T17:59:47.277Z,12.70
2019-03-04T18:02:17.259Z,12.70
2019-03-04T18:04:47.262Z,12.60
2019-03-04T18:07:17.293Z,12.60
2019-03-04T18:09:47.333Z,12.60
2019-03-04T18:12:17.330Z,12.50
2019-03-04T18:14:47.223Z,12.50
2019-03-04T18:17:20.071Z,12.40
2019-03-04T18:19:50.187Z,12.40
2019-03-04T18:22:20.207Z,12.20
2019-03-04T18:24:50.427Z,12.10
2019-03-04T18:27:27.346Z,12.10
2019-03-04T18:30:46.362Z,12.10
2019-03-04T18:33:55.405Z,12.00
2019-03-04T18:36:56.202Z,12.10
2019-03-04T18:40:07.038Z,12.00
2019-03-04T18:43:36.045Z,12.10
2019-03-04T18:46:30.699Z,11.90
2019-03-04T18:49:03.441Z,11.90
2019-03-04T18:51:34.837Z,11.80
2019-03-04T18:54:23.874Z,11.80
2019-03-04T18:56:53.897Z,11.80
2019-03-04T18:59:23.670Z,11.80
2019-03-04T19:01:53.510Z,11.80
2019-03-04T19:04:23.337Z,11.70
2019-03-04T19:06:53.302Z,11.70
2019-03-04T19:09:23.284Z,11.60
2019-03-04T19:11:53.230Z,11.60
2019-03-04T19:14:23.245Z,11.60
2019-03-04T19:16:53.433Z,11.50
2019-03-04T19:19:23.663Z,11.50
2019-03-04T19:21:53.729Z,11.60
2019-03-04T19:24:23.815Z,11.50
2019-03-04T19:26:53.622Z,11.40
2019-03-04T19:29:23.619Z,11.40
2019-03-04T19:31:53.451Z,11.40
2019-03-04T19:34:23.421Z,11.30
2019-03-04T19:36:53.707Z,11.30
2019-03-04T19:39:23.584Z,11.30
2019-03-04T19:41:53.419Z,11.20
2019-03-04T19:44:23.300Z,11.20
2019-03-04T19:46:53.247Z,11.20
2019-03-04T19:49:23.530Z,11.20
2019-03-04T19:51:53.617Z,11.10
2019-03-04T19:54:23.846Z,11.10
2019-03-04T19:56:54.009Z,11.10
2019-03-04T19:59:24.010Z,11.10
2019-03-04T20:01:54.100Z,11.10
2019-03-04T20:04:25.241Z,11.10
2019-03-04T20:06:55.428Z,11.00
2019-03-04T20:09:26.808Z,11.00
2019-03-04T20:11:56.568Z,11.00
2019-03-04T20:14:26.308Z,11.00
2019-03-04T20:16:56.342Z,11.00
2019-03-04T20:19:26.343Z,11.00
2019-03-04T20:21:56.546Z,11.10
2019-03-04T20:24:26.529Z,11.10
2019-03-04T20:26:56.542Z,11.00
2019-03-04T20:29:26.552Z,11.00
2019-03-04T20:31:58.281Z,11.10
2019-03-04T20:34:28.732Z,11.10
2019-03-04T20:36:59.002Z,11.00
2019-03-04T20:39:29.093Z,11.00
2019-03-04T20:42:00.692Z,11.00
2019-03-04T20:44:31.241Z,11.00
2019-03-04T20:47:01.265Z,11.10
2019-03-04T20:49:31.369Z,11.10
2019-03-04T20:52:01.402Z,11.10
2019-03-04T20:54:31.729Z,11.10
2019-03-04T20:57:03.571Z,11.10
2019-03-04T20:59:33.714Z,11.00
2019-03-04T21:02:04.566Z,10.70
2019-03-04T21:04:34.754Z,10.20
2019-03-04T21:07:06.727Z,9.80
2019-03-04T21:09:36.879Z,9.60
2019-03-04T21:12:06.670Z,9.50
2019-03-04T21:14:36.895Z,9.30
2019-03-04T21:17:06.851Z,9.20
2019-03-04T21:19:39.750Z,9.10
2019-03-04T21:22:09.776Z,9.00
2019-03-04T21:24:39.678Z,8.90
2019-03-04T21:27:10.127Z,8.80
2019-03-04T21:30:19.699Z,8.70
2019-03-04T21:33:03.214Z,8.70
2019-03-04T21:36:08.123Z,8.60
2019-03-04T21:38:39.810Z,8.50
2019-03-04T21:41:48.523Z,8.50
2019-03-04T21:44:39.638Z,8.40
2019-03-04T21:47:16.892Z,8.30
2019-03-04T21:49:50.169Z,8.20
2019-03-04T21:52:43.760Z,8.20
2019-03-04T21:55:18.358Z,8.00
2019-03-04T21:57:51.493Z,8.00
2019-03-04T22:00:27.378Z,8.10
2019-03-04T22:03:04.253Z,8.00
2019-03-04T22:05:34.200Z,8.00
2019-03-04T22:08:03.878Z,8.00
2019-03-04T22:10:33.951Z,8.00
2019-03-04T22:13:04.007Z,8.00
2019-03-04T22:15:33.855Z,7.90
2019-03-04T22:18:04.075Z,7.90
2019-03-04T22:20:34.283Z,7.90
2019-03-04T22:23:09.023Z,7.90
2019-03-04T22:25:39.249Z,7.80
2019-03-04T22:28:09.244Z,7.80
2019-03-04T22:30:39.757Z,7.70
2019-03-04T22:33:09.729Z,7.60
2019-03-04T22:35:39.656Z,7.50
2019-03-04T22:38:10.781Z,7.40
2019-03-04T22:40:40.640Z,7.30
2019-03-04T22:43:10.686Z,7.20
2019-03-04T22:45:40.552Z,7.20
2019-03-04T22:48:10.249Z,7.10
2019-03-04T22:50:40.061Z,7.00
2019-03-04T22:53:09.862Z,6.90
2019-03-04T22:55:42.480Z,6.80
2019-03-04T22:58:12.196Z,6.70
2019-03-04T23:01:29.144Z,6.80
2019-03-04T23:04:07.372Z,6.90
2019-03-04T23:06:37.594Z,7.00
2019-03-04T23:09:09.798Z,7.10
2019-03-04T23:11:41.647Z,7.20
2019-03-04T23:14:18.433Z,7.30
2019-03-04T23:16:48.320Z,7.30
2019-03-04T23:19:18.134Z,7.40
2019-03-04T23:21:48.015Z,7.40
2019-03-04T23:24:17.723Z,7.40
2019-03-04T23:26:47.528Z,7.50
2019-03-04T23:29:17.259Z,7.40
2019-03-04T23:31:47.293Z,7.40
2019-03-04T23:34:17.022Z,7.40
2019-03-04T23:36:46.740Z,7.30
2019-03-04T23:39:16.564Z,7.40
2019-03-04T23:41:46.262Z,7.30
2019-03-04T23:44:15.953Z,7.30
2019-03-04T23:46:45.682Z,7.30
2019-03-04T23:49:15.402Z,7.40
2019-03-04T23:51:45.221Z,7.40
2019-03-04T23:54:14.906Z,7.40
2019-03-04T23:56:44.654Z,7.20
2019-03-04T23:59:14.344Z,7.20
